sensor_id;sensor_type;location;lat;lon;timestamp;P1;durP1;ratioP1;P2;durP2;ratioP2
50219;SDS011;36110;51.536;7.562;2023-05-08T00:00:49;4.00;;;3.70;;
50219;SDS011;36110;51.536;7.562;2023-05-08T00:03:14;3.67;;;3.38;;
50219;SDS011;36110;51.536;7.562;2023-05-08T00:05:40;13.20;;;11.90;;
50219;SDS011;36110;51.536;7.562;2023-05-08T00:08:06;13.07;;;11.68;;
50219;SDS011;36110;51.536;7.562;2023-05-08T00:10:31;8.35;;;7.60;;
50219;SDS011;36110;51.536;7.562;2023-05-08T00:12:56;9.50;;;8.57;;
50219;SDS011;36110;51.536;7.562;2023-05-08T00:15:22;5.18;;;4.78;;
50219;SDS011;36110;51.536;7.562;2023-05-08T00:17:47;7.18;;;6.55;;
50219;SDS011;36110;51.536;7.562;2023-05-08T00:20:12;5.15;;;4.75;;
50219;SDS011;36110;51.536;7.562;2023-05-08T00:22:38;4.97;;;4.57;;
50219;SDS011;36110;51.536;7.562;2023-05-08T00:25:03;12.70;;;11.45;;
50219;SDS011;36110;51.536;7.562;2023-05-08T00:27:30;13.07;;;11.88;;
50219;SDS011;36110;51.536;7.562;2023-05-08T00:29:55;5.25;;;4.85;;
50219;SDS011;36110;51.536;7.562;2023-05-08T00:32:21;5.03;;;4.47;;
50219;SDS011;36110;51.536;7.562;2023-05-08T00:34:47;6.82;;;6.32;;
50219;SDS011;36110;51.536;7.562;2023-05-08T00:37:12;6.40;;;3.65;;
50219;SDS011;36110;51.536;7.562;2023-05-08T00:39:37;7.78;;;7.05;;
50219;SDS011;36110;51.536;7.562;2023-05-08T00:42:02;6.53;;;5.68;;
50219;SDS011;36110;51.536;7.562;2023-05-08T00:44:28;3.53;;;3.28;;
50219;SDS011;36110;51.536;7.562;2023-05-08T00:46:53;8.45;;;7.75;;
50219;SDS011;36110;51.536;7.562;2023-05-08T00:49:18;4.53;;;4.20;;
50219;SDS011;36110;51.536;7.562;2023-05-08T00:51:45;5.50;;;5.00;;
50219;SDS011;36110;51.536;7.562;2023-05-08T00:54:11;14.35;;;11.73;;
50219;SDS011;36110;51.536;7.562;2023-05-08T00:56:37;6.75;;;6.20;;
50219;SDS011;36110;51.536;7.562;2023-05-08T00:59:05;10.30;;;9.25;;
50219;SDS011;36110;51.536;7.562;2023-05-08T01:01:33;9.50;;;8.70;;
50219;SDS011;36110;51.536;7.562;2023-05-08T01:04:01;7.88;;;7.15;;
50219;SDS011;36110;51.536;7.562;2023-05-08T01:06:29;12.05;;;10.95;;
50219;SDS011;36110;51.536;7.562;2023-05-08T01:08:54;8.02;;;7.32;;
50219;SDS011;36110;51.536;7.562;2023-05-08T01:17:28;7.57;;;6.97;;
50219;SDS011;36110;51.536;7.562;2023-05-08T01:22:47;10.00;;;8.63;;
50219;SDS011;36110;51.536;7.562;2023-05-08T01:25:30;7.38;;;6.70;;
50219;SDS011;36110;51.536;7.562;2023-05-08T01:36:22;8.52;;;7.70;;
50219;SDS011;36110;51.536;7.562;2023-05-08T01:38:52;12.38;;;11.18;;
50219;SDS011;36110;51.536;7.562;2023-05-08T01:41:26;12.60;;;11.40;;
50219;SDS011;36110;51.536;7.562;2023-05-08T01:43:59;3.45;;;3.25;;
50219;SDS011;36110;51.536;7.562;2023-05-08T01:46:26;3.40;;;3.20;;
50219;SDS011;36110;51.536;7.562;2023-05-08T01:48:58;11.05;;;9.98;;
50219;SDS011;36110;51.536;7.562;2023-05-08T01:51:26;11.60;;;10.50;;
50219;SDS011;36110;51.536;7.562;2023-05-08T01:53:54;4.07;;;3.78;;
50219;SDS011;36110;51.536;7.562;2023-05-08T01:56:23;3.70;;;3.40;;
50219;SDS011;36110;51.536;7.562;2023-05-08T01:58:49;3.30;;;3.10;;
50219;SDS011;36110;51.536;7.562;2023-05-08T02:01:16;5.03;;;4.63;;
50219;SDS011;36110;51.536;7.562;2023-05-08T02:03:43;6.63;;;6.07;;
50219;SDS011;36110;51.536;7.562;2023-05-08T02:06:09;3.20;;;3.00;;
50219;SDS011;36110;51.536;7.562;2023-05-08T02:08:37;4.38;;;4.07;;
50219;SDS011;36110;51.536;7.562;2023-05-08T02:11:02;3.45;;;3.15;;
50219;SDS011;36110;51.536;7.562;2023-05-08T02:13:28;10.23;;;9.32;;
50219;SDS011;36110;51.536;7.562;2023-05-08T02:15:55;3.53;;;3.33;;
50219;SDS011;36110;51.536;7.562;2023-05-08T02:18:21;3.55;;;3.35;;
50219;SDS011;36110;51.536;7.562;2023-05-08T02:20:51;3.10;;;2.90;;
50219;SDS011;36110;51.536;7.562;2023-05-08T02:23:17;3.53;;;3.20;;
50219;SDS011;36110;51.536;7.562;2023-05-08T02:25:43;5.22;;;4.82;;
50219;SDS011;36110;51.536;7.562;2023-05-08T02:28:09;3.10;;;2.80;;
50219;SDS011;36110;51.536;7.562;2023-05-08T02:30:35;4.03;;;3.70;;
50219;SDS011;36110;51.536;7.562;2023-05-08T02:33:01;3.33;;;3.13;;
50219;SDS011;36110;51.536;7.562;2023-05-08T02:35:28;4.35;;;4.05;;
50219;SDS011;36110;51.536;7.562;2023-05-08T02:37:55;4.05;;;3.75;;
50219;SDS011;36110;51.536;7.562;2023-05-08T02:40:21;9.25;;;8.45;;
50219;SDS011;36110;51.536;7.562;2023-05-08T02:42:47;3.42;;;3.13;;
50219;SDS011;36110;51.536;7.562;2023-05-08T02:45:13;5.05;;;4.65;;
50219;SDS011;36110;51.536;7.562;2023-05-08T02:47:42;3.70;;;3.50;;
50219;SDS011;36110;51.536;7.562;2023-05-08T02:50:15;6.82;;;4.93;;
50219;SDS011;36110;51.536;7.562;2023-05-08T02:52:47;3.40;;;3.20;;
50219;SDS011;36110;51.536;7.562;2023-05-08T02:57:47;5.30;;;4.90;;
50219;SDS011;36110;51.536;7.562;2023-05-08T03:00:19;3.13;;;2.92;;
50219;SDS011;36110;51.536;7.562;2023-05-08T03:03:01;3.33;;;3.03;;
50219;SDS011;36110;51.536;7.562;2023-05-08T03:05:35;3.00;;;2.72;;
50219;SDS011;36110;51.536;7.562;2023-05-08T03:08:03;3.35;;;3.13;;
50219;SDS011;36110;51.536;7.562;2023-05-08T03:10:32;3.03;;;2.83;;
50219;SDS011;36110;51.536;7.562;2023-05-08T03:12:59;3.58;;;3.28;;
50219;SDS011;36110;51.536;7.562;2023-05-08T03:15:32;3.20;;;3.00;;
50219;SDS011;36110;51.536;7.562;2023-05-08T03:18:01;3.00;;;2.80;;
50219;SDS011;36110;51.536;7.562;2023-05-08T03:20:32;3.20;;;3.00;;
50219;SDS011;36110;51.536;7.562;2023-05-08T03:23:01;3.20;;;3.00;;
50219;SDS011;36110;51.536;7.562;2023-05-08T03:25:27;3.63;;;2.90;;
50219;SDS011;36110;51.536;7.562;2023-05-08T03:27:53;3.20;;;3.00;;
50219;SDS011;36110;51.536;7.562;2023-05-08T03:30:20;2.97;;;2.78;;
50219;SDS011;36110;51.536;7.562;2023-05-08T03:32:46;3.00;;;2.80;;
50219;SDS011;36110;51.536;7.562;2023-05-08T03:35:12;3.33;;;3.03;;
50219;SDS011;36110;51.536;7.562;2023-05-08T03:37:38;4.15;;;2.80;;
50219;SDS011;36110;51.536;7.562;2023-05-08T03:40:04;3.00;;;2.80;;
50219;SDS011;36110;51.536;7.562;2023-05-08T03:42:32;3.40;;;3.10;;
50219;SDS011;36110;51.536;7.562;2023-05-08T03:44:57;2.97;;;2.78;;
50219;SDS011;36110;51.536;7.562;2023-05-08T03:47:23;3.05;;;2.83;;
50219;SDS011;36110;51.536;7.562;2023-05-08T03:49:50;2.95;;;2.75;;
50219;SDS011;36110;51.536;7.562;2023-05-08T03:52:15;3.25;;;3.00;;
50219;SDS011;36110;51.536;7.562;2023-05-08T03:54:41;3.10;;;2.90;;
50219;SDS011;36110;51.536;7.562;2023-05-08T03:57:06;3.15;;;2.95;;
50219;SDS011;36110;51.536;7.562;2023-05-08T04:02:14;3.00;;;2.80;;
50219;SDS011;36110;51.536;7.562;2023-05-08T04:12:37;3.50;;;3.30;;
50219;SDS011;36110;51.536;7.562;2023-05-08T04:15:16;3.22;;;3.03;;
50219;SDS011;36110;51.536;7.562;2023-05-08T04:17:52;3.03;;;2.83;;
50219;SDS011;36110;51.536;7.562;2023-05-08T04:20:19;2.92;;;2.72;;
50219;SDS011;36110;51.536;7.562;2023-05-08T04:22:46;3.85;;;3.10;;
50219;SDS011;36110;51.536;7.562;2023-05-08T04:25:14;3.45;;;2.67;;
50219;SDS011;36110;51.536;7.562;2023-05-08T04:27:40;3.60;;;3.13;;
50219;SDS011;36110;51.536;7.562;2023-05-08T04:30:08;3.10;;;2.90;;
50219;SDS011;36110;51.536;7.562;2023-05-08T04:32:34;3.08;;;2.88;;
50219;SDS011;36110;51.536;7.562;2023-05-08T04:34:59;3.00;;;2.80;;
50219;SDS011;36110;51.536;7.562;2023-05-08T04:37:25;4.05;;;3.75;;
50219;SDS011;36110;51.536;7.562;2023-05-08T04:39:52;3.10;;;2.90;;
50219;SDS011;36110;51.536;7.562;2023-05-08T04:42:17;3.70;;;3.42;;
50219;SDS011;36110;51.536;7.562;2023-05-08T04:44:43;3.35;;;3.05;;
50219;SDS011;36110;51.536;7.562;2023-05-08T04:47:08;3.10;;;2.90;;
50219;SDS011;36110;51.536;7.562;2023-05-08T04:49:33;2.95;;;2.75;;
50219;SDS011;36110;51.536;7.562;2023-05-08T04:51:59;2.90;;;2.70;;
50219;SDS011;36110;51.536;7.562;2023-05-08T04:54:24;4.07;;;3.78;;
50219;SDS011;36110;51.536;7.562;2023-05-08T04:56:50;3.55;;;3.35;;
50219;SDS011;36110;51.536;7.562;2023-05-08T04:59:15;3.22;;;2.92;;
50219;SDS011;36110;51.536;7.562;2023-05-08T05:01:41;3.17;;;2.97;;
50219;SDS011;36110;51.536;7.562;2023-05-08T05:04:06;3.10;;;2.90;;
50219;SDS011;36110;51.536;7.562;2023-05-08T05:06:32;2.78;;;2.58;;
50219;SDS011;36110;51.536;7.562;2023-05-08T05:08:58;5.47;;;4.20;;
50219;SDS011;36110;51.536;7.562;2023-05-08T05:11:23;3.00;;;2.80;;
50219;SDS011;36110;51.536;7.562;2023-05-08T05:13:48;3.10;;;2.80;;
50219;SDS011;36110;51.536;7.562;2023-05-08T05:16:14;3.17;;;2.67;;
50219;SDS011;36110;51.536;7.562;2023-05-08T05:18:39;3.60;;;3.33;;
50219;SDS011;36110;51.536;7.562;2023-05-08T05:21:05;2.90;;;2.70;;
50219;SDS011;36110;51.536;7.562;2023-05-08T05:23:30;3.30;;;3.10;;
50219;SDS011;36110;51.536;7.562;2023-05-08T05:25:55;2.90;;;2.70;;
50219;SDS011;36110;51.536;7.562;2023-05-08T05:28:21;3.17;;;2.88;;
50219;SDS011;36110;51.536;7.562;2023-05-08T05:30:46;2.90;;;2.70;;
50219;SDS011;36110;51.536;7.562;2023-05-08T05:33:12;3.28;;;3.08;;
50219;SDS011;36110;51.536;7.562;2023-05-08T05:35:37;3.00;;;2.80;;
50219;SDS011;36110;51.536;7.562;2023-05-08T05:38:03;8.98;;;8.07;;
50219;SDS011;36110;51.536;7.562;2023-05-08T05:40:29;14.23;;;11.18;;
50219;SDS011;36110;51.536;7.562;2023-05-08T05:42:54;11.73;;;10.63;;
50219;SDS011;36110;51.536;7.562;2023-05-08T05:45:19;12.55;;;10.75;;
50219;SDS011;36110;51.536;7.562;2023-05-08T05:47:45;12.05;;;10.52;;
50219;SDS011;36110;51.536;7.562;2023-05-08T05:50:13;11.20;;;10.13;;
50219;SDS011;36110;51.536;7.562;2023-05-08T05:52:39;11.70;;;10.60;;
50219;SDS011;36110;51.536;7.562;2023-05-08T05:55:05;12.23;;;10.90;;
50219;SDS011;36110;51.536;7.562;2023-05-08T05:57:31;13.70;;;10.27;;
50219;SDS011;36110;51.536;7.562;2023-05-08T05:59:56;14.00;;;12.60;;
50219;SDS011;36110;51.536;7.562;2023-05-08T06:02:23;15.90;;;14.30;;
50219;SDS011;36110;51.536;7.562;2023-05-08T06:04:50;13.80;;;12.40;;
50219;SDS011;36110;51.536;7.562;2023-05-08T06:07:15;15.88;;;11.82;;
50219;SDS011;36110;51.536;7.562;2023-05-08T06:09:41;13.65;;;12.23;;
50219;SDS011;36110;51.536;7.562;2023-05-08T06:12:06;12.70;;;11.50;;
50219;SDS011;36110;51.536;7.562;2023-05-08T06:14:32;13.10;;;11.60;;
50219;SDS011;36110;51.536;7.562;2023-05-08T06:16:57;14.30;;;11.70;;
50219;SDS011;36110;51.536;7.562;2023-05-08T06:19:23;12.90;;;11.48;;
50219;SDS011;36110;51.536;7.562;2023-05-08T06:21:49;12.68;;;11.45;;
50219;SDS011;36110;51.536;7.562;2023-05-08T06:24:15;12.65;;;11.35;;
50219;SDS011;36110;51.536;7.562;2023-05-08T06:26:40;13.75;;;11.02;;
50219;SDS011;36110;51.536;7.562;2023-05-08T06:29:06;12.20;;;10.75;;
50219;SDS011;36110;51.536;7.562;2023-05-08T06:31:31;14.07;;;10.68;;
50219;SDS011;36110;51.536;7.562;2023-05-08T06:33:56;11.43;;;10.43;;
50219;SDS011;36110;51.536;7.562;2023-05-08T06:36:22;11.02;;;10.00;;
50219;SDS011;36110;51.536;7.562;2023-05-08T06:38:47;11.32;;;10.25;;
50219;SDS011;36110;51.536;7.562;2023-05-08T06:41:12;14.02;;;12.68;;
50219;SDS011;36110;51.536;7.562;2023-05-08T06:43:38;11.20;;;10.10;;
50219;SDS011;36110;51.536;7.562;2023-05-08T06:46:03;14.63;;;12.23;;
50219;SDS011;36110;51.536;7.562;2023-05-08T06:48:28;12.05;;;10.73;;
50219;SDS011;36110;51.536;7.562;2023-05-08T06:50:54;12.27;;;10.00;;
50219;SDS011;36110;51.536;7.562;2023-05-08T06:53:20;13.75;;;11.88;;
50219;SDS011;36110;51.536;7.562;2023-05-08T06:55:45;14.90;;;12.70;;
50219;SDS011;36110;51.536;7.562;2023-05-08T06:58:11;15.63;;;13.80;;
50219;SDS011;36110;51.536;7.562;2023-05-08T07:00:36;18.23;;;14.38;;
50219;SDS011;36110;51.536;7.562;2023-05-08T07:03:02;16.95;;;15.25;;
50219;SDS011;36110;51.536;7.562;2023-05-08T07:05:27;17.20;;;15.60;;
50219;SDS011;36110;51.536;7.562;2023-05-08T07:07:53;21.08;;;18.83;;
50219;SDS011;36110;51.536;7.562;2023-05-08T07:10:19;11.60;;;10.40;;
50219;SDS011;36110;51.536;7.562;2023-05-08T07:12:46;19.88;;;17.42;;
50219;SDS011;36110;51.536;7.562;2023-05-08T07:15:12;18.77;;;16.80;;
50219;SDS011;36110;51.536;7.562;2023-05-08T07:17:37;13.75;;;12.45;;
50219;SDS011;36110;51.536;7.562;2023-05-08T07:20:03;19.63;;;17.63;;
50219;SDS011;36110;51.536;7.562;2023-05-08T07:22:29;11.07;;;10.07;;
50219;SDS011;36110;51.536;7.562;2023-05-08T07:24:54;10.80;;;9.82;;
50219;SDS011;36110;51.536;7.562;2023-05-08T07:27:20;18.25;;;16.27;;
50219;SDS011;36110;51.536;7.562;2023-05-08T07:29:45;17.65;;;15.95;;
50219;SDS011;36110;51.536;7.562;2023-05-08T07:32:10;16.58;;;15.02;;
50219;SDS011;36110;51.536;7.562;2023-05-08T07:34:36;18.45;;;15.95;;
50219;SDS011;36110;51.536;7.562;2023-05-08T07:37:01;17.38;;;15.50;;
50219;SDS011;36110;51.536;7.562;2023-05-08T07:39:27;15.98;;;14.35;;
50219;SDS011;36110;51.536;7.562;2023-05-08T07:41:53;14.90;;;12.10;;
50219;SDS011;36110;51.536;7.562;2023-05-08T07:44:18;17.40;;;14.40;;
50219;SDS011;36110;51.536;7.562;2023-05-08T07:46:43;11.32;;;10.32;;
50219;SDS011;36110;51.536;7.562;2023-05-08T07:49:09;16.30;;;14.73;;
50219;SDS011;36110;51.536;7.562;2023-05-08T07:51:34;17.08;;;15.27;;
50219;SDS011;36110;51.536;7.562;2023-05-08T07:54:00;17.60;;;15.05;;
50219;SDS011;36110;51.536;7.562;2023-05-08T07:56:25;16.20;;;14.60;;
50219;SDS011;36110;51.536;7.562;2023-05-08T07:58:51;14.32;;;11.23;;
50219;SDS011;36110;51.536;7.562;2023-05-08T08:01:17;9.93;;;7.15;;
50219;SDS011;36110;51.536;7.562;2023-05-08T08:03:45;12.05;;;10.65;;
50219;SDS011;36110;51.536;7.562;2023-05-08T08:06:10;7.53;;;6.50;;
50219;SDS011;36110;51.536;7.562;2023-05-08T08:08:36;14.45;;;10.00;;
50219;SDS011;36110;51.536;7.562;2023-05-08T08:11:05;12.20;;;9.50;;
50219;SDS011;36110;51.536;7.562;2023-05-08T08:13:30;8.95;;;6.10;;
50219;SDS011;36110;51.536;7.562;2023-05-08T08:15:56;10.38;;;8.60;;
50219;SDS011;36110;51.536;7.562;2023-05-08T08:18:22;10.05;;;8.02;;
50219;SDS011;36110;51.536;7.562;2023-05-08T08:20:48;8.10;;;7.30;;
50219;SDS011;36110;51.536;7.562;2023-05-08T08:23:13;8.30;;;7.45;;
50219;SDS011;36110;51.536;7.562;2023-05-08T08:25:38;8.88;;;7.40;;
50219;SDS011;36110;51.536;7.562;2023-05-08T08:28:07;8.00;;;7.20;;
50219;SDS011;36110;51.536;7.562;2023-05-08T08:30:32;7.82;;;6.43;;
50219;SDS011;36110;51.536;7.562;2023-05-08T08:32:57;10.00;;;7.88;;
50219;SDS011;36110;51.536;7.562;2023-05-08T08:35:26;7.97;;;7.15;;
50219;SDS011;36110;51.536;7.562;2023-05-08T08:37:53;8.20;;;6.78;;
50219;SDS011;36110;51.536;7.562;2023-05-08T08:40:19;7.70;;;6.05;;
50219;SDS011;36110;51.536;7.562;2023-05-08T08:42:45;8.30;;;6.85;;
50219;SDS011;36110;51.536;7.562;2023-05-08T08:45:11;7.47;;;6.85;;
50219;SDS011;36110;51.536;7.562;2023-05-08T08:47:36;11.45;;;7.20;;
50219;SDS011;36110;51.536;7.562;2023-05-08T08:50:02;9.98;;;6.38;;
50219;SDS011;36110;51.536;7.562;2023-05-08T08:55:26;7.30;;;6.55;;
50219;SDS011;36110;51.536;7.562;2023-05-08T09:00:42;9.52;;;6.13;;
50219;SDS011;36110;51.536;7.562;2023-05-08T09:03:07;5.82;;;5.20;;
50219;SDS011;36110;51.536;7.562;2023-05-08T09:05:34;5.60;;;5.10;;
50219;SDS011;36110;51.536;7.562;2023-05-08T09:07:59;5.50;;;4.75;;
50219;SDS011;36110;51.536;7.562;2023-05-08T09:10:25;7.60;;;6.28;;
50219;SDS011;36110;51.536;7.562;2023-05-08T09:12:50;8.00;;;6.00;;
50219;SDS011;36110;51.536;7.562;2023-05-08T09:15:16;7.30;;;6.60;;
50219;SDS011;36110;51.536;7.562;2023-05-08T09:17:41;8.55;;;6.55;;
50219;SDS011;36110;51.536;7.562;2023-05-08T09:20:07;8.77;;;5.70;;
50219;SDS011;36110;51.536;7.562;2023-05-08T09:22:35;5.20;;;4.25;;
50219;SDS011;36110;51.536;7.562;2023-05-08T09:25:00;5.75;;;5.05;;
50219;SDS011;36110;51.536;7.562;2023-05-08T09:27:27;5.43;;;4.90;;
50219;SDS011;36110;51.536;7.562;2023-05-08T09:29:57;7.55;;;4.65;;
50219;SDS011;36110;51.536;7.562;2023-05-08T09:32:29;5.30;;;4.78;;
50219;SDS011;36110;51.536;7.562;2023-05-08T09:34:55;5.10;;;4.60;;
50219;SDS011;36110;51.536;7.562;2023-05-08T09:37:20;4.28;;;3.88;;
50219;SDS011;36110;51.536;7.562;2023-05-08T09:39:46;5.50;;;3.95;;
50219;SDS011;36110;51.536;7.562;2023-05-08T09:42:12;4.45;;;3.92;;
50219;SDS011;36110;51.536;7.562;2023-05-08T09:44:44;4.68;;;4.25;;
50219;SDS011;36110;51.536;7.562;2023-05-08T09:47:17;5.65;;;4.40;;
50219;SDS011;36110;51.536;7.562;2023-05-08T09:52:26;7.32;;;3.95;;
50219;SDS011;36110;51.536;7.562;2023-05-08T09:54:56;4.72;;;4.15;;
50219;SDS011;36110;51.536;7.562;2023-05-08T09:57:26;4.93;;;4.03;;
50219;SDS011;36110;51.536;7.562;2023-05-08T09:59:59;4.60;;;4.05;;
50219;SDS011;36110;51.536;7.562;2023-05-08T10:02:40;5.53;;;4.10;;
50219;SDS011;36110;51.536;7.562;2023-05-08T10:05:39;4.25;;;3.85;;
50219;SDS011;36110;51.536;7.562;2023-05-08T10:10:44;4.20;;;3.80;;
50219;SDS011;36110;51.536;7.562;2023-05-08T10:13:10;5.85;;;4.10;;
50219;SDS011;36110;51.536;7.562;2023-05-08T10:15:36;4.00;;;3.67;;
50219;SDS011;36110;51.536;7.562;2023-05-08T10:18:06;3.88;;;3.58;;
50219;SDS011;36110;51.536;7.562;2023-05-08T10:20:33;4.13;;;3.80;;
50219;SDS011;36110;51.536;7.562;2023-05-08T10:23:00;4.43;;;4.05;;
50219;SDS011;36110;51.536;7.562;2023-05-08T10:25:29;5.30;;;3.90;;
50219;SDS011;36110;51.536;7.562;2023-05-08T10:30:24;4.88;;;3.47;;
50219;SDS011;36110;51.536;7.562;2023-05-08T10:32:51;3.97;;;3.67;;
50219;SDS011;36110;51.536;7.562;2023-05-08T10:35:20;3.45;;;3.15;;
50219;SDS011;36110;51.536;7.562;2023-05-08T10:37:47;3.80;;;3.50;;
50219;SDS011;36110;51.536;7.562;2023-05-08T10:40:13;3.88;;;3.58;;
50219;SDS011;36110;51.536;7.562;2023-05-08T10:42:40;3.55;;;3.25;;
50219;SDS011;36110;51.536;7.562;2023-05-08T10:45:05;3.65;;;3.30;;
50219;SDS011;36110;51.536;7.562;2023-05-08T10:47:35;3.80;;;3.40;;
50219;SDS011;36110;51.536;7.562;2023-05-08T10:55:40;4.00;;;3.70;;
50219;SDS011;36110;51.536;7.562;2023-05-08T10:58:10;3.42;;;3.13;;
50219;SDS011;36110;51.536;7.562;2023-05-08T11:03:17;6.97;;;3.25;;
50219;SDS011;36110;51.536;7.562;2023-05-08T11:05:46;3.40;;;3.10;;
50219;SDS011;36110;51.536;7.562;2023-05-08T11:08:13;3.90;;;3.60;;
50219;SDS011;36110;51.536;7.562;2023-05-08T11:10:50;3.67;;;3.17;;
50219;SDS011;36110;51.536;7.562;2023-05-08T11:13:17;3.08;;;2.88;;
50219;SDS011;36110;51.536;7.562;2023-05-08T11:15:48;6.18;;;3.38;;
50219;SDS011;36110;51.536;7.562;2023-05-08T11:18:15;3.38;;;3.00;;
50219;SDS011;36110;51.536;7.562;2023-05-08T11:20:42;3.33;;;3.08;;
50219;SDS011;36110;51.536;7.562;2023-05-08T11:23:20;3.30;;;3.05;;
50219;SDS011;36110;51.536;7.562;2023-05-08T11:28:24;3.75;;;3.42;;
50219;SDS011;36110;51.536;7.562;2023-05-08T11:30:52;4.53;;;3.22;;
50219;SDS011;36110;51.536;7.562;2023-05-08T11:33:18;3.03;;;2.70;;
50219;SDS011;36110;51.536;7.562;2023-05-08T11:35:46;5.38;;;4.00;;
50219;SDS011;36110;51.536;7.562;2023-05-08T11:38:26;5.30;;;4.75;;
50219;SDS011;36110;51.536;7.562;2023-05-08T11:41:06;5.38;;;3.60;;
50219;SDS011;36110;51.536;7.562;2023-05-08T11:46:48;2.97;;;2.78;;
50219;SDS011;36110;51.536;7.562;2023-05-08T11:49:16;3.25;;;2.80;;
50219;SDS011;36110;51.536;7.562;2023-05-08T11:51:46;3.30;;;3.10;;
50219;SDS011;36110;51.536;7.562;2023-05-08T11:54:16;3.28;;;2.97;;
50219;SDS011;36110;51.536;7.562;2023-05-08T11:56:46;4.40;;;3.97;;
50219;SDS011;36110;51.536;7.562;2023-05-08T11:59:12;3.45;;;3.15;;
50219;SDS011;36110;51.536;7.562;2023-05-08T12:01:38;2.95;;;2.70;;
50219;SDS011;36110;51.536;7.562;2023-05-08T12:06:57;13.63;;;5.38;;
50219;SDS011;36110;51.536;7.562;2023-05-08T12:09:23;3.35;;;3.13;;
50219;SDS011;36110;51.536;7.562;2023-05-08T12:11:50;4.07;;;3.03;;
50219;SDS011;36110;51.536;7.562;2023-05-08T12:14:21;3.13;;;2.92;;
50219;SDS011;36110;51.536;7.562;2023-05-08T12:16:47;3.95;;;3.17;;
50219;SDS011;36110;51.536;7.562;2023-05-08T12:19:27;5.25;;;4.40;;
50219;SDS011;36110;51.536;7.562;2023-05-08T12:22:01;5.07;;;4.32;;
50219;SDS011;36110;51.536;7.562;2023-05-08T12:35:00;4.03;;;3.63;;
50219;SDS011;36110;51.536;7.562;2023-05-08T12:38:11;3.80;;;3.50;;
50219;SDS011;36110;51.536;7.562;2023-05-08T12:40:41;6.72;;;4.00;;
50219;SDS011;36110;51.536;7.562;2023-05-08T12:43:07;4.22;;;3.67;;
50219;SDS011;36110;51.536;7.562;2023-05-08T12:45:36;3.15;;;2.95;;
50219;SDS011;36110;51.536;7.562;2023-05-08T12:48:12;4.57;;;4.10;;
50219;SDS011;36110;51.536;7.562;2023-05-08T12:50:40;2.63;;;2.42;;
50219;SDS011;36110;51.536;7.562;2023-05-08T12:53:28;3.00;;;2.80;;
50219;SDS011;36110;51.536;7.562;2023-05-08T12:56:21;7.90;;;4.30;;
50219;SDS011;36110;51.536;7.562;2023-05-08T12:58:46;2.80;;;2.60;;
50219;SDS011;36110;51.536;7.562;2023-05-08T13:01:12;4.47;;;3.95;;
50219;SDS011;36110;51.536;7.562;2023-05-08T13:03:40;2.80;;;2.60;;
50219;SDS011;36110;51.536;7.562;2023-05-08T13:06:20;2.70;;;2.50;;
50219;SDS011;36110;51.536;7.562;2023-05-08T13:08:51;2.70;;;2.50;;
50219;SDS011;36110;51.536;7.562;2023-05-08T13:11:28;7.70;;;4.82;;
50219;SDS011;36110;51.536;7.562;2023-05-08T13:13:55;10.40;;;4.75;;
50219;SDS011;36110;51.536;7.562;2023-05-08T13:16:23;3.20;;;2.60;;
50219;SDS011;36110;51.536;7.562;2023-05-08T13:18:48;3.75;;;3.45;;
50219;SDS011;36110;51.536;7.562;2023-05-08T13:21:16;5.03;;;4.50;;
50219;SDS011;36110;51.536;7.562;2023-05-08T13:27:21;6.40;;;5.78;;
50219;SDS011;36110;51.536;7.562;2023-05-08T13:29:52;4.18;;;3.60;;
50219;SDS011;36110;51.536;7.562;2023-05-08T13:32:18;5.55;;;4.53;;
50219;SDS011;36110;51.536;7.562;2023-05-08T13:34:45;3.15;;;2.92;;
50219;SDS011;36110;51.536;7.562;2023-05-08T13:37:10;2.70;;;2.50;;
50219;SDS011;36110;51.536;7.562;2023-05-08T13:39:39;4.20;;;3.53;;
50219;SDS011;36110;51.536;7.562;2023-05-08T13:42:06;2.92;;;2.67;;
50219;SDS011;36110;51.536;7.562;2023-05-08T13:44:59;4.15;;;3.58;;
50219;SDS011;36110;51.536;7.562;2023-05-08T13:47:54;4.47;;;3.90;;
50219;SDS011;36110;51.536;7.562;2023-05-08T13:50:22;5.05;;;4.05;;
50219;SDS011;36110;51.536;7.562;2023-05-08T13:52:51;4.72;;;3.90;;
50219;SDS011;36110;51.536;7.562;2023-05-08T13:55:16;3.25;;;2.95;;
50219;SDS011;36110;51.536;7.562;2023-05-08T13:57:44;5.18;;;3.53;;
50219;SDS011;36110;51.536;7.562;2023-05-08T14:00:10;3.47;;;3.10;;
50219;SDS011;36110;51.536;7.562;2023-05-08T14:02:35;3.22;;;2.92;;
50219;SDS011;36110;51.536;7.562;2023-05-08T14:05:01;3.25;;;2.95;;
50219;SDS011;36110;51.536;7.562;2023-05-08T14:07:27;4.20;;;3.80;;
50219;SDS011;36110;51.536;7.562;2023-05-08T14:09:54;4.72;;;4.32;;
50219;SDS011;36110;51.536;7.562;2023-05-08T14:12:19;3.47;;;3.17;;
50219;SDS011;36110;51.536;7.562;2023-05-08T14:14:45;4.47;;;3.95;;
50219;SDS011;36110;51.536;7.562;2023-05-08T14:17:13;4.75;;;4.05;;
50219;SDS011;36110;51.536;7.562;2023-05-08T14:22:34;4.20;;;3.13;;
50219;SDS011;36110;51.536;7.562;2023-05-08T14:24:59;4.40;;;4.00;;
50219;SDS011;36110;51.536;7.562;2023-05-08T14:27:24;5.70;;;4.80;;
50219;SDS011;36110;51.536;7.562;2023-05-08T14:29:50;3.97;;;3.58;;
50219;SDS011;36110;51.536;7.562;2023-05-08T14:32:17;4.03;;;3.70;;
50219;SDS011;36110;51.536;7.562;2023-05-08T14:34:42;4.85;;;4.45;;
50219;SDS011;36110;51.536;7.562;2023-05-08T14:37:08;4.60;;;4.00;;
50219;SDS011;36110;51.536;7.562;2023-05-08T14:39:36;5.45;;;4.93;;
50219;SDS011;36110;51.536;7.562;2023-05-08T14:42:02;2.78;;;2.53;;
50219;SDS011;36110;51.536;7.562;2023-05-08T14:44:28;6.60;;;5.22;;
50219;SDS011;36110;51.536;7.562;2023-05-08T14:46:53;3.63;;;3.33;;
50219;SDS011;36110;51.536;7.562;2023-05-08T14:49:19;4.35;;;3.17;;
50219;SDS011;36110;51.536;7.562;2023-05-08T14:51:44;9.60;;;6.45;;
50219;SDS011;36110;51.536;7.562;2023-05-08T14:54:13;6.13;;;5.53;;
50219;SDS011;36110;51.536;7.562;2023-05-08T14:56:38;4.03;;;3.72;;
50219;SDS011;36110;51.536;7.562;2023-05-08T14:59:06;2.80;;;2.60;;
50219;SDS011;36110;51.536;7.562;2023-05-08T15:04:46;5.32;;;4.75;;
50219;SDS011;36110;51.536;7.562;2023-05-08T15:07:52;7.68;;;6.88;;
50219;SDS011;36110;51.536;7.562;2023-05-08T15:10:23;5.65;;;2.47;;
50219;SDS011;36110;51.536;7.562;2023-05-08T15:12:52;3.28;;;3.05;;
50219;SDS011;36110;51.536;7.562;2023-05-08T15:15:29;2.65;;;2.45;;
50219;SDS011;36110;51.536;7.562;2023-05-08T15:17:57;9.07;;;7.22;;
50219;SDS011;36110;51.536;7.562;2023-05-08T15:20:35;5.05;;;4.63;;
50219;SDS011;36110;51.536;7.562;2023-05-08T15:23:03;4.25;;;3.88;;
50219;SDS011;36110;51.536;7.562;2023-05-08T15:25:28;5.60;;;5.10;;
50219;SDS011;36110;51.536;7.562;2023-05-08T15:30:58;2.50;;;2.30;;
50219;SDS011;36110;51.536;7.562;2023-05-08T15:33:30;6.20;;;5.65;;
50219;SDS011;36110;51.536;7.562;2023-05-08T15:36:43;4.32;;;3.95;;
50219;SDS011;36110;51.536;7.562;2023-05-08T15:39:08;3.42;;;3.13;;
50219;SDS011;36110;51.536;7.562;2023-05-08T15:41:33;5.38;;;4.85;;
50219;SDS011;36110;51.536;7.562;2023-05-08T15:44:00;4.15;;;3.42;;
50219;SDS011;36110;51.536;7.562;2023-05-08T15:46:26;6.93;;;6.25;;
50219;SDS011;36110;51.536;7.562;2023-05-08T15:48:51;6.07;;;5.10;;
50219;SDS011;36110;51.536;7.562;2023-05-08T15:51:16;6.40;;;5.72;;
50219;SDS011;36110;51.536;7.562;2023-05-08T15:53:42;6.28;;;5.60;;
50219;SDS011;36110;51.536;7.562;2023-05-08T15:56:07;6.32;;;5.68;;
50219;SDS011;36110;51.536;7.562;2023-05-08T15:58:32;6.80;;;4.75;;
50219;SDS011;36110;51.536;7.562;2023-05-08T16:01:00;5.80;;;4.78;;
50219;SDS011;36110;51.536;7.562;2023-05-08T16:03:25;6.10;;;5.22;;
50219;SDS011;36110;51.536;7.562;2023-05-08T16:05:51;5.63;;;5.13;;
50219;SDS011;36110;51.536;7.562;2023-05-08T16:08:16;7.38;;;6.18;;
50219;SDS011;36110;51.536;7.562;2023-05-08T16:10:41;7.75;;;5.47;;